Time;durP1;ratioP1;P1;durP2;ratioP2;P2;SDS_P1;SDS_P2;PMS_P1;PMS_P2;Temp;Humidity;BMP_temperature;BMP_pressure;BME280_temperature;BME280_humidity;BME280_pressure;Samples;Min_cycle;Max_cycle;Signal;HPM_P1;HPM_P2
2021/11/01 00:00:41;;;;;;;6.88;2.28;;;13.70;99.90;;;;;;5113625;28;20262;-73
2021/11/01 00:03:22;;;;;;;9.35;2.97;;;13.70;99.90;;;;;;5113349;28;20225;-73
2021/11/01 00:05:51;;;;;;;13.63;3.42;;;13.70;99.90;;;;;;5112281;28;20201;-73
2021/11/01 00:08:20;;;;;;;6.50;2.55;;;13.70;99.90;;;;;;5113524;28;20202;-72
2021/11/01 00:10:47;;;;;;;9.75;2.20;;;13.70;99.90;;;;;;5113835;28;20597;-72
2021/11/01 00:13:15;;;;;;;6.68;2.40;;;13.70;99.90;;;;;;5112361;28;20229;-72
2021/11/01 00:15:42;;;;;;;9.00;2.50;;;13.60;99.90;;;;;;5112494;28;20215;-72
2021/11/01 00:18:10;;;;;;;5.80;1.70;;;13.60;99.90;;;;;;5112031;28;20201;-72
2021/11/01 00:20:37;;;;;;;9.27;2.65;;;13.60;99.90;;;;;;5112377;28;20287;-72
2021/11/01 00:23:06;;;;;;;8.18;2.35;;;13.60;99.90;;;;;;5111208;28;20231;-73
2021/11/01 00:25:33;;;;;;;5.18;1.60;;;13.60;99.90;;;;;;5111546;28;20212;-72
2021/11/01 00:28:00;;;;;;;12.40;2.85;;;13.60;99.90;;;;;;5112028;28;20213;-72
2021/11/01 00:30:27;;;;;;;11.65;2.80;;;13.60;99.90;;;;;;5110533;28;20247;-72
2021/11/01 00:32:55;;;;;;;14.55;2.08;;;13.50;99.90;;;;;;5111298;28;20229;-73
2021/11/01 00:35:22;;;;;;;9.55;2.05;;;13.50;99.90;;;;;;5108273;28;20292;-72
2021/11/01 00:37:49;;;;;;;8.18;2.75;;;13.40;99.90;;;;;;5111585;28;20662;-72
2021/11/01 00:40:18;;;;;;;8.30;2.40;;;13.40;99.90;;;;;;5111444;28;20213;-73
2021/11/01 00:42:47;;;;;;;6.00;2.75;;;13.30;99.90;;;;;;5110778;28;20220;-71
2021/11/01 00:45:14;;;;;;;4.55;2.10;;;13.20;99.90;;;;;;5111914;28;20275;-71
2021/11/01 00:47:42;;;;;;;6.45;1.83;;;13.10;99.90;;;;;;5107082;28;20197;-72
2021/11/01 00:50:09;;;;;;;9.75;3.17;;;13.20;99.90;;;;;;5114195;28;20205;-71
2021/11/01 00:52:38;;;;;;;10.80;2.53;;;13.10;99.90;;;;;;5115994;28;20236;-72
2021/11/01 00:55:10;;;;;;;7.60;2.13;;;13.00;99.90;;;;;;5119109;28;20205;-72
2021/11/01 00:57:39;;;;;;;10.32;1.90;;;12.90;99.90;;;;;;5118483;28;20231;-72
2021/11/01 01:00:07;;;;;;;7.43;3.08;;;12.90;99.90;;;;;;5114843;28;20219;-73
2021/11/01 01:02:35;;;;;;;16.08;3.92;;;12.90;99.90;;;;;;5115896;28;20217;-73
2021/11/01 01:05:02;;;;;;;11.50;2.90;;;12.80;99.90;;;;;;5114650;28;20279;-74
2021/11/01 01:07:35;;;;;;;4.95;2.17;;;12.80;99.90;;;;;;5110784;28;20190;-73
2021/11/01 01:10:03;;;;;;;8.68;2.85;;;12.80;99.90;;;;;;5115317;28;20214;-73
2021/11/01 01:12:30;;;;;;;14.40;2.65;;;12.70;99.90;;;;;;5110014;28;20545;-73
2021/11/01 01:15:03;;;;;;;11.65;2.50;;;12.60;99.90;;;;;;5115407;28;20200;-72
2021/11/01 01:17:37;;;;;;;8.13;2.30;;;12.60;99.90;;;;;;5113188;28;20192;-72
2021/11/01 01:20:08;;;;;;;7.38;2.53;;;12.60;99.90;;;;;;5111937;28;20214;-73
2021/11/01 01:22:35;;;;;;;9.02;2.20;;;12.60;99.90;;;;;;5109814;28;20223;-73
2021/11/01 01:25:10;;;;;;;14.45;4.20;;;12.60;99.90;;;;;;5110205;28;20219;-74
2021/11/01 01:27:38;;;;;;;8.82;2.55;;;12.50;99.90;;;;;;5095686;28;20655;-73
2021/11/01 01:30:08;;;;;;;6.22;2.45;;;12.50;99.90;;;;;;5111025;28;20295;-71
2021/11/01 01:32:35;;;;;;;14.50;3.25;;;12.40;99.90;;;;;;5115395;28;20260;-73
2021/11/01 01:35:03;;;;;;;6.35;2.35;;;12.40;99.90;;;;;;5114557;28;20212;-73
2021/11/01 01:37:30;;;;;;;11.35;3.00;;;12.30;99.90;;;;;;5115111;28;20215;-71
2021/11/01 01:39:58;;;;;;;14.35;2.30;;;12.20;99.90;;;;;;5116085;28;20213;-71
2021/11/01 01:42:25;;;;;;;19.58;4.93;;;12.20;99.90;;;;;;5114676;28;20258;-71
2021/11/01 01:44:52;;;;;;;7.70;2.05;;;12.00;99.90;;;;;;5113978;28;20212;-73
2021/11/01 01:47:21;;;;;;;7.78;3.17;;;12.10;99.90;;;;;;5116097;28;20215;-73
2021/11/01 01:49:48;;;;;;;10.63;2.85;;;12.00;99.90;;;;;;5114933;28;20684;-74
2021/11/01 01:52:16;;;;;;;14.50;3.47;;;12.00;99.90;;;;;;5114271;28;20229;-71
2021/11/01 01:54:44;;;;;;;11.30;3.17;;;12.00;99.90;;;;;;5112577;28;20201;-73
2021/11/01 01:57:17;;;;;;;20.67;3.92;;;11.90;99.90;;;;;;5112443;28;20204;-72
2021/11/01 01:59:44;;;;;;;8.63;2.30;;;11.90;99.90;;;;;;5107616;28;20202;-72
2021/11/01 02:02:12;;;;;;;12.68;2.83;;;11.80;99.90;;;;;;5111399;28;20220;-73
2021/11/01 02:04:42;;;;;;;12.70;2.40;;;11.70;99.90;;;;;;5110004;28;20207;-73
2021/11/01 02:07:19;;;;;;;12.00;3.65;;;11.70;99.90;;;;;;5108802;28;20297;-72
2021/11/01 02:09:57;;;;;;;10.02;2.30;;;11.60;99.90;;;;;;5113023;28;20195;-71
2021/11/01 02:12:31;;;;;;;7.13;3.45;;;11.60;99.90;;;;;;5094682;28;20274;-71
2021/11/01 02:15:03;;;;;;;12.27;3.20;;;11.60;99.90;;;;;;5091217;28;20210;-71
2021/11/01 02:17:32;;;;;;;8.27;2.60;;;11.60;99.90;;;;;;5114119;28;20204;-71
2021/11/01 02:20:05;;;;;;;10.73;3.10;;;11.50;99.90;;;;;;5113876;28;20200;-71
2021/11/01 02:22:40;;;;;;;7.18;2.80;;;11.50;99.90;;;;;;5107716;28;20704;-71
2021/11/01 02:25:10;;;;;;;15.18;3.97;;;11.50;99.90;;;;;;5111284;28;20261;-73
2021/11/01 02:27:41;;;;;;;11.63;3.45;;;11.40;99.90;;;;;;5113628;28;20211;-71
2021/11/01 02:30:10;;;;;;;12.55;3.40;;;11.40;99.90;;;;;;5113232;28;20220;-71
2021/11/01 02:32:41;;;;;;;13.63;2.88;;;11.50;99.90;;;;;;5113208;28;20223;-72
2021/11/01 02:35:33;;;;;;;15.88;2.85;;;11.50;99.90;;;;;;5113155;28;20299;-72
2021/11/01 02:38:04;;;;;;;15.85;3.88;;;11.40;99.90;;;;;;5108885;28;20206;-72
2021/11/01 02:40:33;;;;;;;10.55;3.75;;;11.50;99.90;;;;;;5108741;28;20207;-71
2021/11/01 02:43:02;;;;;;;14.27;3.55;;;11.40;99.90;;;;;;5113691;28;20720;-72
2021/11/01 02:45:35;;;;;;;15.80;5.50;;;11.40;99.90;;;;;;5109090;28;20241;-72
2021/11/01 02:48:02;;;;;;;8.60;3.05;;;11.40;99.90;;;;;;5113783;28;20208;-71
2021/11/01 02:51:01;;;;;;;11.75;3.10;;;11.40;99.90;;;;;;5114607;28;20214;-72
2021/11/01 02:53:28;;;;;;;8.43;3.47;;;11.40;99.90;;;;;;5111086;28;20699;-72
2021/11/01 02:56:07;;;;;;;6.55;3.40;;;11.40;99.90;;;;;;5113956;28;20208;-71
2021/11/01 02:58:36;;;;;;;41.17;5.95;;;11.40;99.90;;;;;;5113565;28;20197;-72
2021/11/01 03:01:04;;;;;;;11.65;4.20;;;11.40;99.90;;;;;;5101918;28;20210;-72
2021/11/01 03:03:32;;;;;;;14.55;3.92;;;11.40;99.90;;;;;;5110555;28;20214;-71
2021/11/01 03:06:03;;;;;;;12.98;4.15;;;11.40;99.90;;;;;;5111975;28;20671;-72
2021/11/01 03:08:31;;;;;;;17.40;4.22;;;11.40;99.90;;;;;;5107759;28;20210;-71
2021/11/01 03:10:59;;;;;;;23.02;4.55;;;11.40;99.90;;;;;;5112721;28;20602;-71
2021/11/01 03:13:28;;;;;;;19.10;3.85;;;11.40;99.90;;;;;;5105446;28;20221;-73
2021/11/01 03:15:58;;;;;;;8.65;4.18;;;11.40;99.90;;;;;;5108966;28;20207;-73
2021/11/01 03:18:34;;;;;;;18.50;4.20;;;11.40;99.90;;;;;;5103422;28;20205;-72
2021/11/01 03:21:02;;;;;;;13.43;4.63;;;11.50;99.90;;;;;;5110815;28;20605;-72
2021/11/01 03:23:33;;;;;;;13.95;4.22;;;11.60;99.90;;;;;;5112394;28;20305;-72
2021/11/01 03:26:03;;;;;;;17.10;3.90;;;11.60;99.90;;;;;;5111084;28;20206;-73
2021/11/01 03:28:32;;;;;;;5.93;3.15;;;11.60;99.90;;;;;;5112419;28;20662;-72
2021/11/01 03:31:04;;;;;;;11.70;4.18;;;11.60;99.90;;;;;;5106618;28;20214;-73
2021/11/01 03:33:38;;;;;;;13.65;4.30;;;11.60;99.90;;;;;;5111109;28;20699;-73
2021/11/01 03:36:06;;;;;;;19.95;5.05;;;11.60;99.90;;;;;;5113159;28;20223;-72
2021/11/01 03:38:35;;;;;;;13.40;3.80;;;11.70;99.90;;;;;;5114010;28;20207;-73
2021/11/01 03:41:07;;;;;;;18.73;4.43;;;11.70;99.90;;;;;;5112155;28;20283;-73
2021/11/01 03:43:37;;;;;;;16.60;4.85;;;11.70;99.90;;;;;;5111847;28;20676;-72
2021/11/01 03:46:08;;;;;;;19.42;5.95;;;11.70;99.90;;;;;;5110820;28;20205;-73
2021/11/01 03:48:37;;;;;;;11.27;4.35;;;11.70;99.90;;;;;;5102365;28;20205;-73
2021/11/01 03:51:08;;;;;;;19.00;5.18;;;11.80;99.90;;;;;;5113146;28;20572;-73
2021/11/01 03:53:36;;;;;;;15.05;4.88;;;11.80;99.90;;;;;;5112709;28;20226;-72
2021/11/01 03:56:04;;;;;;;14.50;4.55;;;11.80;99.90;;;;;;5112387;28;20205;-73
2021/11/01 03:58:32;;;;;;;16.05;4.82;;;11.80;99.90;;;;;;5111951;28;20201;-73
2021/11/01 04:01:00;;;;;;;28.75;6.70;;;11.80;99.90;;;;;;5112702;28;20236;-72
2021/11/01 04:03:29;;;;;;;12.80;4.70;;;11.80;99.90;;;;;;5112939;28;20313;-73
2021/11/01 04:06:02;;;;;;;21.20;5.80;;;11.80;99.90;;;;;;5111215;28;20205;-73
2021/11/01 04:08:29;;;;;;;11.50;5.50;;;11.90;99.90;;;;;;5110718;28;20619;-73
2021/11/01 04:10:58;;;;;;;11.50;6.07;;;11.80;99.90;;;;;;5112286;28;20560;-72
2021/11/01 04:13:25;;;;;;;11.98;5.10;;;11.80;99.90;;;;;;5112602;28;20234;-73
2021/11/01 04:15:57;;;;;;;10.63;5.07;;;11.90;99.90;;;;;;5112199;28;20212;-73
2021/11/01 04:18:35;;;;;;;13.52;5.47;;;11.90;99.90;;;;;;5112754;28;20222;-72
2021/11/01 04:21:06;;;;;;;21.48;5.78;;;11.90;99.90;;;;;;5101458;28;20207;-73
2021/11/01 04:23:35;;;;;;;15.30;4.97;;;11.90;99.90;;;;;;5112322;28;20273;-72
2021/11/01 04:26:03;;;;;;;21.27;7.60;;;11.90;99.90;;;;;;5111559;28;20290;-73
2021/11/01 04:28:31;;;;;;;13.05;6.00;;;11.90;99.90;;;;;;5116426;28;20201;-73
2021/11/01 04:31:04;;;;;;;14.02;5.78;;;11.80;99.90;;;;;;5115937;28;20287;-72
2021/11/01 04:33:32;;;;;;;14.93;6.45;;;11.80;99.90;;;;;;5096044;28;20432;-72
2021/11/01 04:35:59;;;;;;;19.52;6.45;;;11.90;99.90;;;;;;5114038;28;20214;-73
2021/11/01 04:38:39;;;;;;;13.23;5.50;;;11.80;99.90;;;;;;5116720;28;20198;-73
2021/11/01 04:41:14;;;;;;;17.98;6.10;;;11.80;99.90;;;;;;5116247;28;20197;-72
2021/11/01 04:54:42;;;;;;;13.45;4.97;;;11.70;99.90;;;;;;5107637;28;20258;-72
2021/11/01 04:57:09;;;;;;;12.73;5.85;;;11.70;99.90;;;;;;5113268;28;20200;-72
2021/11/01 04:59:39;;;;;;;15.13;5.75;;;11.70;99.90;;;;;;5109336;28;20284;-72
2021/11/01 05:02:06;;;;;;;13.90;7.15;;;11.70;99.90;;;;;;5112376;28;20314;-72
2021/11/01 05:04:36;;;;;;;17.55;6.93;;;11.70;99.90;;;;;;5110909;28;20199;-72
2021/11/01 05:07:04;;;;;;;9.55;6.20;;;11.60;99.90;;;;;;5103632;28;20201;-72
2021/11/01 05:09:35;;;;;;;17.83;6.07;;;11.60;99.90;;;;;;5115016;28;20538;-73
2021/11/01 05:12:18;;;;;;;13.10;6.22;;;11.60;99.90;;;;;;5115048;28;20295;-73
2021/11/01 05:14:55;;;;;;;9.30;5.40;;;11.60;99.90;;;;;;5115279;28;20270;-73
2021/11/01 05:17:34;;;;;;;10.10;6.03;;;11.70;99.90;;;;;;5095891;28;20203;-71
2021/11/01 05:20:07;;;;;;;14.50;6.43;;;11.60;99.90;;;;;;5117018;28;20218;-73
2021/11/01 05:22:39;;;;;;;14.10;6.50;;;11.60;99.90;;;;;;5096538;28;20640;-72
2021/11/01 05:25:11;;;;;;;17.20;6.75;;;11.60;99.90;;;;;;5111306;28;20199;-72
2021/11/01 05:27:46;;;;;;;15.10;6.35;;;11.70;99.90;;;;;;5115466;28;20573;-72
2021/11/01 05:30:17;;;;;;;17.98;6.22;;;11.70;99.90;;;;;;5094229;28;20207;-72
2021/11/01 05:32:58;;;;;;;15.68;6.43;;;11.60;99.90;;;;;;5105952;28;20271;-73
2021/11/01 05:35:25;;;;;;;11.45;6.20;;;11.60;99.90;;;;;;5111815;28;20227;-73
2021/11/01 05:37:52;;;;;;;19.90;6.05;;;11.60;99.90;;;;;;5107160;28;20219;-73
2021/11/01 05:40:20;;;;;;;19.48;6.72;;;11.60;99.90;;;;;;5110844;28;20200;-73
2021/11/01 05:42:50;;;;;;;14.55;5.90;;;11.60;99.90;;;;;;5104849;28;20228;-73
2021/11/01 05:45:17;;;;;;;13.75;6.90;;;11.60;99.90;;;;;;5114521;28;20275;-72
2021/11/01 05:47:52;;;;;;;16.80;6.18;;;11.60;99.90;;;;;;5112451;28;20205;-73
2021/11/01 05:50:19;;;;;;;22.98;6.28;;;11.60;99.90;;;;;;5104122;28;20196;-73
2021/11/01 05:52:46;;;;;;;14.80;6.57;;;11.50;99.90;;;;;;5107538;28;20773;-73
2021/11/01 05:55:23;;;;;;;16.42;6.43;;;11.60;99.90;;;;;;5103340;28;20223;-73
2021/11/01 05:58:05;;;;;;;19.55;5.47;;;11.60;99.90;;;;;;5086599;28;20199;-73
2021/11/01 06:03:16;;;;;;;12.68;5.50;;;11.50;99.90;;;;;;5107139;28;20642;-73
2021/11/01 06:06:15;;;;;;;13.98;5.90;;;11.50;99.90;;;;;;5109194;28;20223;-73
2021/11/01 06:08:54;;;;;;;23.40;7.28;;;11.40;99.90;;;;;;5104696;28;20195;-72
2021/11/01 06:14:04;;;;;;;14.77;5.80;;;11.40;99.90;;;;;;5071097;28;20753;-71
2021/11/01 06:16:32;;;;;;;10.00;4.60;;;11.40;99.90;;;;;;5104443;28;20237;-71
2021/11/01 06:18:59;;;;;;;16.75;5.30;;;11.40;99.90;;;;;;5111976;28;20205;-70
2021/11/01 06:21:27;;;;;;;11.80;5.18;;;11.30;99.90;;;;;;5111735;28;20291;-71
2021/11/01 06:23:57;;;;;;;6.95;4.20;;;11.40;99.90;;;;;;5105587;28;20677;-71
2021/11/01 06:26:27;;;;;;;8.73;5.07;;;11.40;99.90;;;;;;5105722;28;20190;-72
2021/11/01 06:28:58;;;;;;;10.75;4.30;;;11.30;99.90;;;;;;5113169;28;20202;-71
2021/11/01 06:31:29;;;;;;;12.25;3.97;;;11.30;99.90;;;;;;5112774;28;20210;-72
2021/11/01 06:34:17;;;;;;;9.02;4.25;;;11.30;99.90;;;;;;5111912;28;20258;-72
2021/11/01 06:45:19;;;;;;;15.77;4.70;;;11.30;99.90;;;;;;5047622;28;20218;-79
2021/11/01 06:50:48;;;;;;;14.60;4.10;;;11.30;99.90;;;;;;5049776;28;20198;-76
2021/11/01 06:58:48;;;;;;;8.00;3.22;;;11.30;99.90;;;;;;5045563;28;20208;-76
2021/11/01 07:15:19;;;;;;;7.03;2.78;;;11.30;99.90;;;;;;5052867;28;20210;-76
2021/11/01 07:18:02;;;;;;;12.60;5.00;;;11.30;99.90;;;;;;5053123;28;20669;-77
2021/11/01 07:20:39;;;;;;;13.77;3.72;;;11.30;99.90;;;;;;5050305;28;20242;-76
2021/11/01 08:24:14;;;;;;;9.55;3.20;;;12.00;99.90;;;;;;5037742;28;20230;-75
2021/11/01 08:30:04;;;;;;;8.27;2.53;;;12.40;99.90;;;;;;5030961;28;20579;-75
2021/11/01 08:35:54;;;;;;;10.60;3.08;;;12.90;99.90;;;;;;5037724;28;20219;-75
2021/11/01 08:49:53;;;;;;;8.30;3.00;;;18.90;99.90;;;;;;4958332;29;20551;-75
2021/11/01 09:04:03;;;;;;;7.03;3.20;;;20.50;93.70;;;;;;5021891;28;20473;-76
2021/11/01 09:20:29;;;;;;;6.70;2.83;;;15.50;99.90;;;;;;5031017;28;20700;-74
2021/11/01 09:23:09;;;;;;;6.00;1.60;;;15.30;99.90;;;;;;5033757;28;20816;-74
2021/11/01 09:25:48;;;;;;;8.40;2.83;;;15.30;99.90;;;;;;5029336;28;20236;-75
2021/11/01 09:28:24;;;;;;;6.03;2.55;;;15.40;99.90;;;;;;5026075;28;20231;-73
2021/11/01 09:36:22;;;;;;;7.35;2.45;;;14.50;99.90;;;;;;5019921;28;20250;-74
2021/11/01 09:39:00;;;;;;;13.73;2.80;;;14.10;99.90;;;;;;5026157;28;20277;-73
2021/11/01 09:41:30;;;;;;;9.45;3.42;;;13.90;99.90;;;;;;5034229;28;20258;-74
2021/11/01 09:43:59;;;;;;;6.75;2.50;;;14.10;99.90;;;;;;5029478;28;20303;-74
2021/11/01 09:46:29;;;;;;;7.38;2.60;;;14.40;99.90;;;;;;5031753;28;20287;-73
2021/11/01 09:49:16;;;;;;;10.68;4.93;;;14.60;99.90;;;;;;5031861;28;20208;-73
2021/11/01 09:51:46;;;;;;;7.65;2.90;;;14.40;99.90;;;;;;5035024;28;20301;-75
2021/11/01 09:54:21;;;;;;;9.90;3.72;;;14.20;99.90;;;;;;5031204;28;20666;-73
2021/11/01 09:56:58;;;;;;;10.25;4.22;;;14.00;99.90;;;;;;5034689;28;20287;-74
2021/11/01 09:59:29;;;;;;;9.50;4.35;;;14.00;99.90;;;;;;5028012;28;20206;-74
2021/11/01 10:01:57;;;;;;;5.57;3.15;;;14.00;99.90;;;;;;5038910;28;20239;-74
2021/11/01 10:04:26;;;;;;;8.63;4.22;;;14.60;99.90;;;;;;5036171;28;20303;-74
2021/11/01 10:07:10;;;;;;;5.43;3.65;;;15.10;99.90;;;;;;5037108;28;20254;-74
2021/11/01 10:09:41;;;;;;;4.82;3.65;;;15.30;99.90;;;;;;5037870;28;20232;-73
2021/11/01 10:12:12;;;;;;;5.97;3.70;;;14.90;99.90;;;;;;5042388;28;20227;-73
2021/11/01 10:14:49;;;;;;;8.52;4.88;;;14.50;99.90;;;;;;5039613;28;20196;-72
2021/11/01 10:17:34;;;;;;;5.60;3.63;;;14.50;99.90;;;;;;5025990;28;20230;-73
2021/11/01 10:20:08;;;;;;;3.88;3.30;;;14.50;99.90;;;;;;5033657;28;20248;-74
2021/11/01 10:22:37;;;;;;;8.75;3.35;;;14.40;99.90;;;;;;5033304;28;20263;-73
2021/11/01 10:25:08;;;;;;;6.45;3.65;;;14.80;99.90;;;;;;5032532;28;20212;-73
2021/11/01 10:27:37;;;;;;;6.30;3.67;;;14.90;99.90;;;;;;5027710;28;20208;-72
2021/11/01 10:30:09;;;;;;;9.30;4.22;;;14.80;99.90;;;;;;5024521;28;20299;-73
2021/11/01 10:32:42;;;;;;;13.57;4.55;;;15.00;99.90;;;;;;5022967;28;20272;-73
2021/11/01 10:35:16;;;;;;;8.68;4.35;;;15.20;99.90;;;;;;5029533;28;20630;-73
2021/11/01 10:38:20;;;;;;;5.32;3.25;;;14.90;99.90;;;;;;5030107;28;20215;-73
2021/11/01 10:40:58;;;;;;;7.70;3.70;;;14.70;99.90;;;;;;5027356;28;20216;-73
2021/11/01 11:11:33;;;;;;;8.13;4.10;;;14.00;99.90;;;;;;5030435;28;20238;-72
2021/11/01 11:14:10;;;;;;;3.03;2.83;;;14.00;99.90;;;;;;5031838;28;20204;-73
2021/11/01 11:19:41;;;;;;;3.60;3.13;;;14.20;99.90;;;;;;5038668;28;20578;-72
2021/11/01 11:22:25;;;;;;;5.57;3.80;;;14.10;99.90;;;;;;5025723;28;20315;-73
2021/11/01 11:25:01;;;;;;;10.35;3.80;;;14.30;99.90;;;;;;5030718;28;20667;-73
2021/11/01 11:47:25;;;;;;;8.02;3.35;;;14.80;99.90;;;;;;5027259;28;20214;-72
2021/11/01 11:49:52;;;;;;;4.32;2.97;;;14.80;99.90;;;;;;5036062;28;20571;-73
2021/11/01 11:52:24;;;;;;;7.55;3.15;;;14.80;99.90;;;;;;5034910;28;20232;-73
2021/11/01 11:54:57;;;;;;;3.08;2.78;;;14.70;99.90;;;;;;5035082;28;20208;-73
2021/11/01 11:57:29;;;;;;;5.68;3.58;;;14.60;99.90;;;;;;5032534;28;20278;-73
2021/11/01 11:59:59;;;;;;;9.30;3.17;;;14.50;99.90;;;;;;5032995;28;20674;-72
2021/11/01 12:02:39;;;;;;;7.15;3.65;;;14.60;99.90;;;;;;5035855;28;20223;-71
2021/11/01 12:05:14;;;;;;;4.82;2.88;;;14.70;99.90;;;;;;5033820;28;20200;-72
2021/11/01 12:07:52;;;;;;;10.88;6.35;;;14.60;99.90;;;;;;5021457;28;20217;-72
2021/11/01 12:19:06;;;;;;;5.47;2.53;;;14.30;99.90;;;;;;5019771;28;20254;-72
2021/11/01 12:21:34;;;;;;;3.60;2.70;;;14.40;99.90;;;;;;5033805;28;20239;-72
2021/11/01 12:24:08;;;;;;;5.95;2.47;;;14.40;99.90;;;;;;5033598;28;20201;-72
2021/11/01 12:26:36;;;;;;;6.57;3.30;;;14.20;99.90;;;;;;5033743;28;20287;-72
2021/11/01 12:29:09;;;;;;;7.47;3.50;;;14.10;99.90;;;;;;5033854;28;20216;-73
2021/11/01 12:31:37;;;;;;;8.52;2.95;;;14.10;99.90;;;;;;5034713;28;20204;-73
2021/11/01 12:34:07;;;;;;;2.88;2.67;;;14.10;99.90;;;;;;5033489;28;20283;-72
2021/11/01 12:36:41;;;;;;;5.57;2.60;;;14.10;99.90;;;;;;5033199;28;20274;-73
2021/11/01 12:39:22;;;;;;;7.75;3.22;;;14.20;99.90;;;;;;5031360;28;20203;-72
2021/11/01 12:58:57;;;;;;;6.10;2.60;;;13.80;99.90;;;;;;5033114;28;20213;-72
2021/11/01 13:01:27;;;;;;;5.10;2.88;;;13.80;99.90;;;;;;5026998;28;20228;-73
2021/11/01 13:04:00;;;;;;;7.60;2.53;;;13.80;99.90;;;;;;5033665;28;20246;-73
2021/11/01 13:06:36;;;;;;;5.90;2.53;;;13.80;99.90;;;;;;5032524;28;20333;-73
2021/11/01 13:09:09;;;;;;;5.50;3.08;;;13.70;99.90;;;;;;5033808;28;20215;-71
2021/11/01 13:11:53;;;;;;;11.30;3.20;;;13.80;99.90;;;;;;5036827;28;20223;-73
2021/11/01 13:14:50;;;;;;;4.72;2.10;;;13.80;99.90;;;;;;5033096;28;20204;-72
2021/11/01 13:20:05;;;;;;;5.80;3.00;;;13.90;99.90;;;;;;5031797;28;20673;-73
2021/11/01 13:22:33;;;;;;;3.45;2.20;;;13.90;99.90;;;;;;5032673;28;20228;-73
2021/11/01 13:25:11;;;;;;;7.05;2.55;;;14.00;99.90;;;;;;5033215;28;20235;-74
2021/11/01 13:27:49;;;;;;;6.22;2.70;;;14.10;99.90;;;;;;5032871;28;20643;-72
2021/11/01 13:36:27;;;;;;;4.43;2.20;;;14.10;99.90;;;;;;5038971;28;20243;-71
2021/11/01 13:38:58;;;;;;;7.35;2.75;;;14.30;99.90;;;;;;5033788;28;20212;-72
2021/11/01 13:41:28;;;;;;;6.28;1.92;;;14.30;99.90;;;;;;5030299;28;20222;-72
2021/11/01 13:44:07;;;;;;;4.32;2.55;;;14.30;99.90;;;;;;5030664;28;20228;-71
2021/11/01 13:46:34;;;;;;;6.65;2.67;;;14.20;99.90;;;;;;5030516;28;20843;-73
2021/11/01 13:49:01;;;;;;;6.78;2.30;;;14.20;99.90;;;;;;5037611;28;20860;-75
2021/11/01 13:51:32;;;;;;;7.68;2.28;;;14.00;99.90;;;;;;5032875;28;20583;-72
2021/11/01 13:54:07;;;;;;;4.30;1.58;;;14.00;99.90;;;;;;5029974;28;20270;-72
2021/11/01 13:56:40;;;;;;;2.97;2.22;;;14.00;99.90;;;;;;5024700;28;20212;-73
2021/11/01 13:59:30;;;;;;;3.97;2.25;;;14.00;99.90;;;;;;5030011;28;21604;-74
2021/11/01 14:13:15;;;;;;;8.27;2.40;;;14.00;99.90;;;;;;5033354;28;20222;-74
2021/11/01 15:16:58;;;;;;;8.35;2.53;;;14.00;99.90;;;;;;5014456;28;20197;-74
2021/11/01 15:22:32;;;;;;;4.43;2.13;;;13.80;99.90;;;;;;5030005;28;20285;-71
2021/11/01 15:28:13;;;;;;;7.60;3.00;;;13.70;99.90;;;;;;5036311;28;20318;-71
2021/11/01 15:42:21;;;;;;;5.35;2.90;;;13.40;99.90;;;;;;5022200;28;20218;-71
2021/11/01 16:15:42;;;;;;;8.75;3.50;;;13.20;99.90;;;;;;5034409;28;20345;-72
2021/11/01 16:18:12;;;;;;;5.05;3.20;;;13.20;99.90;;;;;;5030708;28;20212;-72
2021/11/01 16:20:39;;;;;;;4.80;3.35;;;13.00;99.90;;;;;;5035288;28;20298;-72
2021/11/01 16:25:55;;;;;;;7.50;3.95;;;13.00;99.90;;;;;;5025026;28;20533;-75
2021/11/01 16:28:25;;;;;;;5.55;3.70;;;12.90;99.90;;;;;;5033600;28;20218;-73
2021/11/01 16:31:10;;;;;;;5.35;3.33;;;12.90;99.90;;;;;;5024267;28;20207;-73
2021/11/01 16:33:43;;;;;;;3.03;2.75;;;12.80;99.90;;;;;;5034304;28;20547;-73
2021/11/01 16:36:21;;;;;;;7.97;3.08;;;12.70;99.90;;;;;;5027933;28;20199;-73
2021/11/01 16:38:52;;;;;;;9.57;2.97;;;12.70;99.90;;;;;;5033796;28;20214;-73
2021/11/01 16:41:24;;;;;;;10.07;2.97;;;12.60;99.90;;;;;;5032201;28;20211;-73
2021/11/01 16:43:56;;;;;;;5.00;2.80;;;12.60;99.90;;;;;;5023937;28;20224;-73
2021/11/01 16:46:23;;;;;;;5.57;2.83;;;12.50;99.90;;;;;;5020108;28;20250;-72
2021/11/01 16:48:58;;;;;;;11.05;3.33;;;12.40;99.90;;;;;;5020379;28;20578;-72
2021/11/01 16:51:25;;;;;;;5.15;3.17;;;12.30;99.90;;;;;;5026870;28;20198;-73
2021/11/01 16:53:53;;;;;;;10.15;5.05;;;12.30;99.90;;;;;;5033136;28;20226;-73
2021/11/01 16:56:41;;;;;;;8.45;3.70;;;12.30;99.90;;;;;;5029625;28;20202;-74
2021/11/01 16:59:15;;;;;;;7.88;3.70;;;12.20;99.90;;;;;;5030783;28;20208;-72
2021/11/01 17:01:52;;;;;;;4.45;3.38;;;12.00;99.90;;;;;;5031769;28;20209;-73
2021/11/01 17:04:20;;;;;;;5.43;2.60;;;12.00;99.90;;;;;;5031576;28;20256;-73
2021/11/01 17:06:54;;;;;;;5.20;3.65;;;12.00;99.90;;;;;;5032921;28;20202;-72
2021/11/01 17:23:21;;;;;;;9.15;3.47;;;11.70;99.90;;;;;;5026720;28;20230;-69
2021/11/01 17:25:59;;;;;;;9.88;3.88;;;11.60;99.90;;;;;;5027458;28;20209;-68
2021/11/01 17:28:45;;;;;;;7.65;4.18;;;11.70;99.90;;;;;;5030945;28;20593;-68
2021/11/01 17:37:08;;;;;;;7.75;4.55;;;11.70;99.90;;;;;;4977826;28;20208;-69
2021/11/01 18:41:12;;;;;;;8.13;5.00;;;10.70;99.90;;;;;;5032320;28;20264;-72
2021/11/01 18:46:43;;;;;;;8.13;5.05;;;10.60;99.90;;;;;;5028528;28;20275;-72
2021/11/01 18:52:05;;;;;;;13.88;5.25;;;10.60;99.90;;;;;;5032200;28;20748;-71
2021/11/01 18:54:38;;;;;;;10.57;5.70;;;10.50;99.90;;;;;;5028539;28;20229;-71
2021/11/01 18:57:06;;;;;;;7.82;4.30;;;10.50;99.90;;;;;;5021770;28;20287;-72
2021/11/01 18:59:41;;;;;;;9.02;7.00;;;10.40;99.90;;;;;;5025245;28;20197;-71
2021/11/01 19:05:09;;;;;;;15.25;5.97;;;10.40;99.90;;;;;;5026073;28;20200;-74
2021/11/01 19:07:43;;;;;;;8.98;5.60;;;10.30;99.90;;;;;;5024029;28;20192;-71
2021/11/01 19:10:51;;;;;;;7.78;5.38;;;10.40;99.90;;;;;;5023024;28;20212;-69
2021/11/01 20:04:11;;;;;;;15.80;8.38;;;10.30;99.90;;;;;;5033975;28;20228;-74
2021/11/01 20:06:54;;;;;;;13.18;8.18;;;10.30;99.90;;;;;;5033328;28;20207;-72
2021/11/01 21:25:02;;;;;;;8.07;3.53;;;10.20;99.90;;;;;;5027617;28;20225;-70
2021/11/01 21:27:31;;;;;;;15.55;3.40;;;10.10;99.90;;;;;;5026377;28;20210;-70
2021/11/01 21:29:59;;;;;;;4.55;2.50;;;10.20;99.90;;;;;;5028898;28;20209;-70
2021/11/01 21:32:27;;;;;;;5.78;3.38;;;10.20;99.90;;;;;;5030257;28;20240;-72
2021/11/01 21:34:57;;;;;;;4.50;2.88;;;10.20;99.90;;;;;;5026801;28;20247;-72
2021/11/01 21:37:25;;;;;;;6.75;3.03;;;10.20;99.90;;;;;;5032426;28;20201;-72
2021/11/01 21:39:54;;;;;;;4.70;2.88;;;10.20;99.90;;;;;;5031992;28;20288;-73
2021/11/01 21:42:22;;;;;;;5.90;2.70;;;10.40;99.90;;;;;;5032708;28;20228;-71
2021/11/01 21:44:50;;;;;;;7.72;3.75;;;10.40;99.90;;;;;;5034946;28;20708;-73
2021/11/01 21:47:17;;;;;;;8.10;2.20;;;10.40;99.90;;;;;;5022063;28;20220;-72
2021/11/01 21:49:44;;;;;;;7.05;2.95;;;10.50;99.90;;;;;;5030443;28;20207;-71
2021/11/01 21:52:13;;;;;;;8.10;3.22;;;10.60;99.90;;;;;;5029305;28;20765;-71
2021/11/01 21:54:43;;;;;;;4.38;2.63;;;10.60;99.90;;;;;;5033772;28;20196;-71
2021/11/01 21:57:19;;;;;;;2.63;2.35;;;10.70;99.90;;;;;;5029012;28;20210;-70
2021/11/01 22:16:45;;;;;;;10.93;5.60;;;10.60;99.90;;;;;;5026444;28;20428;-71
2021/11/01 22:25:04;;;;;;;8.25;3.47;;;10.50;99.90;;;;;;4969757;28;20313;-71
2021/11/01 22:33:28;;;;;;;8.27;3.40;;;10.20;99.90;;;;;;5028293;28;20587;-71
2021/11/01 22:39:04;;;;;;;6.00;2.47;;;10.20;99.90;;;;;;5033482;28;20207;-72
2021/11/01 22:41:46;;;;;;;8.40;2.95;;;10.20;99.90;;;;;;5031901;28;20678;-72
2021/11/01 22:47:25;;;;;;;7.43;3.28;;;10.00;99.90;;;;;;5028353;28;20204;-72
2021/11/01 22:58:07;;;;;;;8.27;3.08;;;9.70;99.90;;;;;;5030628;28;20249;-72
2021/11/01 23:00:37;;;;;;;7.50;2.80;;;9.80;99.90;;;;;;5033941;28;20281;-71
2021/11/01 23:03:10;;;;;;;5.05;3.38;;;9.80;99.90;;;;;;5028284;28;20264;-71
2021/11/01 23:05:59;;;;;;;5.95;2.88;;;9.80;99.90;;;;;;5029141;28;20231;-72
2021/11/01 23:33:20;;;;;;;7.90;3.25;;;10.20;99.90;;;;;;5033259;28;20245;-72
2021/11/01 23:35:50;;;;;;;4.70;2.75;;;10.20;99.90;;;;;;5035395;28;20207;-72
2021/11/01 23:38:18;;;;;;;6.70;2.67;;;10.30;99.90;;;;;;5034936;28;20215;-72
2021/11/01 23:40:46;;;;;;;6.15;3.88;;;10.30;99.90;;;;;;5039983;28;20258;-72
2021/11/01 23:43:13;;;;;;;6.50;2.80;;;10.30;99.90;;;;;;5029893;28;20721;-72
2021/11/01 23:45:42;;;;;;;3.35;2.60;;;10.30;99.90;;;;;;5031859;28;20299;-73
2021/11/01 23:48:09;;;;;;;6.05;2.45;;;10.30;99.90;;;;;;5034374;28;20292;-72
2021/11/01 23:50:37;;;;;;;3.28;2.40;;;10.30;99.90;;;;;;5033859;28;20216;-72
2021/11/01 23:53:09;;;;;;;3.50;2.40;;;10.20;99.90;;;;;;5033187;28;20604;-72
2021/11/01 23:55:36;;;;;;;5.90;2.95;;;10.20;99.90;;;;;;5032646;28;20205;-72
2021/11/01 23:58:05;;;;;;;5.55;3.75;;;10.10;99.90;;;;;;5033688;28;20640;-72
